Main page
METAR-TAF:

METAR-TAF

Airports :

International Airport Irkutsk

Irkutsk, Russia

latitude: 52-16N, longitude: 104-19E, elevation: 513 m

Current weather observation

The report was made 47 minutes ago, at 18:00 UTC
Wind 4 kt from the West/Northwest
Temperature 0°C
Humidity 64%
Pressure 1013 hPa
Visibility 10 km or more
no clouds below 1500 m and no cumulonimbus

METAR: UIII 241800Z 29002MPS CAVOK 00/M06 Q1013 R30/60D NOSIG RMK QFE715/0954

Time: 02:47 (18:47 UTC)

Forecast

The report was made 1 hour and 47 minutes ago, at 17:00 UTC
Forecast valid from 24 at 18 UTC to 25 at 18 UTC
Wind 6 kt from the Northwest
Visibility 10 km or more
no clouds below 1500 m and no cumulonimbus
Temporary
from 25 at 01 UTC to 25 at 12 UTC
Wind 16 kt from the North/Northwest

TAF: UIII 241700Z 2418/2518 32003MPS CAVOK TEMPO 2501/2512 33008MPS

Weather observations and forecasts of more than 4000 airports (METAR and TAF reports).

The available stations are represented by yellow and red dots on the map.

Hover mouse over dot to see the name of the station.

Then click to see weather observations and forecasts.

To change the map : click on the green buttons with a black cross to zoom in, on the green button with a dash to zoom out, or on the green arrows for adjacent maps.


METAR-TAF: